sensor_id;sensor_type;location;lat;lon;timestamp;P1;durP1;ratioP1;P2;durP2;ratioP2
16272;SDS011;8244;50.044;9.006;2022-12-07T00:02:15;16.80;;;8.93;;
16272;SDS011;8244;50.044;9.006;2022-12-07T00:07:16;18.23;;;9.43;;
16272;SDS011;8244;50.044;9.006;2022-12-07T00:12:19;17.50;;;9.57;;
16272;SDS011;8244;50.044;9.006;2022-12-07T00:17:21;18.00;;;9.93;;
16272;SDS011;8244;50.044;9.006;2022-12-07T00:22:23;18.53;;;10.07;;
16272;SDS011;8244;50.044;9.006;2022-12-07T00:27:27;16.07;;;9.50;;
16272;SDS011;8244;50.044;9.006;2022-12-07T00:32:29;19.43;;;10.77;;
16272;SDS011;8244;50.044;9.006;2022-12-07T00:37:31;17.50;;;9.47;;
16272;SDS011;8244;50.044;9.006;2022-12-07T00:42:34;19.50;;;10.27;;
16272;SDS011;8244;50.044;9.006;2022-12-07T00:47:35;18.30;;;9.63;;
16272;SDS011;8244;50.044;9.006;2022-12-07T00:52:37;18.20;;;9.83;;
16272;SDS011;8244;50.044;9.006;2022-12-07T00:57:40;21.27;;;10.20;;
16272;SDS011;8244;50.044;9.006;2022-12-07T01:02:41;18.43;;;10.03;;
16272;SDS011;8244;50.044;9.006;2022-12-07T01:07:43;16.53;;;9.57;;
16272;SDS011;8244;50.044;9.006;2022-12-07T01:12:47;19.27;;;10.33;;
16272;SDS011;8244;50.044;9.006;2022-12-07T01:17:49;18.73;;;9.93;;
16272;SDS011;8244;50.044;9.006;2022-12-07T01:22:51;18.90;;;9.97;;
16272;SDS011;8244;50.044;9.006;2022-12-07T01:27:54;18.80;;;10.07;;
16272;SDS011;8244;50.044;9.006;2022-12-07T01:32:55;16.93;;;9.90;;
16272;SDS011;8244;50.044;9.006;2022-12-07T01:37:57;21.37;;;10.57;;
16272;SDS011;8244;50.044;9.006;2022-12-07T01:43:00;22.30;;;10.23;;
16272;SDS011;8244;50.044;9.006;2022-12-07T01:48:02;20.87;;;10.80;;
16272;SDS011;8244;50.044;9.006;2022-12-07T01:53:05;19.17;;;10.23;;
16272;SDS011;8244;50.044;9.006;2022-12-07T01:58:11;18.43;;;10.57;;
16272;SDS011;8244;50.044;9.006;2022-12-07T02:03:15;23.23;;;10.63;;
16272;SDS011;8244;50.044;9.006;2022-12-07T02:08:20;21.60;;;10.90;;
16272;SDS011;8244;50.044;9.006;2022-12-07T02:13:24;19.83;;;11.03;;
16272;SDS011;8244;50.044;9.006;2022-12-07T02:18:30;22.00;;;10.67;;
16272;SDS011;8244;50.044;9.006;2022-12-07T02:23:41;20.03;;;11.20;;
16272;SDS011;8244;50.044;9.006;2022-12-07T02:29:11;20.60;;;11.23;;
16272;SDS011;8244;50.044;9.006;2022-12-07T02:34:19;21.67;;;11.50;;
16272;SDS011;8244;50.044;9.006;2022-12-07T02:39:26;21.20;;;11.33;;
16272;SDS011;8244;50.044;9.006;2022-12-07T02:44:33;20.50;;;10.13;;
16272;SDS011;8244;50.044;9.006;2022-12-07T02:49:35;19.00;;;10.57;;
16272;SDS011;8244;50.044;9.006;2022-12-07T02:54:39;18.10;;;10.27;;
16272;SDS011;8244;50.044;9.006;2022-12-07T02:59:45;19.20;;;10.63;;
16272;SDS011;8244;50.044;9.006;2022-12-07T03:05:01;20.07;;;10.67;;
16272;SDS011;8244;50.044;9.006;2022-12-07T03:10:13;20.37;;;11.33;;
16272;SDS011;8244;50.044;9.006;2022-12-07T03:15:25;20.87;;;10.63;;
16272;SDS011;8244;50.044;9.006;2022-12-07T03:20:30;18.57;;;10.33;;
16272;SDS011;8244;50.044;9.006;2022-12-07T03:25:35;19.80;;;10.30;;
16272;SDS011;8244;50.044;9.006;2022-12-07T03:30:44;19.27;;;10.23;;
16272;SDS011;8244;50.044;9.006;2022-12-07T03:35:51;21.03;;;10.23;;
16272;SDS011;8244;50.044;9.006;2022-12-07T03:41:00;19.90;;;9.83;;
16272;SDS011;8244;50.044;9.006;2022-12-07T03:46:10;15.43;;;9.77;;
16272;SDS011;8244;50.044;9.006;2022-12-07T03:51:20;16.93;;;9.63;;
16272;SDS011;8244;50.044;9.006;2022-12-07T03:56:25;18.73;;;10.20;;
16272;SDS011;8244;50.044;9.006;2022-12-07T04:01:29;18.07;;;10.00;;
16272;SDS011;8244;50.044;9.006;2022-12-07T04:06:32;18.83;;;9.47;;
16272;SDS011;8244;50.044;9.006;2022-12-07T04:11:33;20.87;;;10.10;;
16272;SDS011;8244;50.044;9.006;2022-12-07T04:16:36;18.97;;;9.60;;
16272;SDS011;8244;50.044;9.006;2022-12-07T04:21:38;17.27;;;9.87;;
16272;SDS011;8244;50.044;9.006;2022-12-07T04:26:40;19.10;;;9.80;;
16272;SDS011;8244;50.044;9.006;2022-12-07T04:31:43;16.50;;;9.03;;
16272;SDS011;8244;50.044;9.006;2022-12-07T04:36:46;15.63;;;9.10;;
16272;SDS011;8244;50.044;9.006;2022-12-07T04:41:48;17.10;;;9.03;;
16272;SDS011;8244;50.044;9.006;2022-12-07T04:46:51;17.57;;;9.10;;
16272;SDS011;8244;50.044;9.006;2022-12-07T04:51:54;14.50;;;7.50;;
16272;SDS011;8244;50.044;9.006;2022-12-07T04:56:55;15.40;;;7.50;;
16272;SDS011;8244;50.044;9.006;2022-12-07T05:01:58;15.43;;;7.70;;
16272;SDS011;8244;50.044;9.006;2022-12-07T05:07:00;14.90;;;7.17;;
16272;SDS011;8244;50.044;9.006;2022-12-07T05:12:01;13.37;;;7.43;;
16272;SDS011;8244;50.044;9.006;2022-12-07T05:17:05;13.97;;;7.17;;
16272;SDS011;8244;50.044;9.006;2022-12-07T05:22:06;13.07;;;7.13;;
16272;SDS011;8244;50.044;9.006;2022-12-07T05:27:08;13.57;;;7.43;;
16272;SDS011;8244;50.044;9.006;2022-12-07T05:32:11;15.47;;;7.67;;
16272;SDS011;8244;50.044;9.006;2022-12-07T05:37:13;11.57;;;6.73;;
16272;SDS011;8244;50.044;9.006;2022-12-07T05:42:15;13.30;;;6.90;;
16272;SDS011;8244;50.044;9.006;2022-12-07T05:47:18;12.47;;;6.30;;
16272;SDS011;8244;50.044;9.006;2022-12-07T05:52:20;13.63;;;6.70;;
16272;SDS011;8244;50.044;9.006;2022-12-07T05:57:22;14.37;;;6.97;;
16272;SDS011;8244;50.044;9.006;2022-12-07T06:02:24;13.33;;;6.67;;
16272;SDS011;8244;50.044;9.006;2022-12-07T06:07:26;14.23;;;7.10;;
16272;SDS011;8244;50.044;9.006;2022-12-07T06:12:28;13.23;;;7.07;;
16272;SDS011;8244;50.044;9.006;2022-12-07T06:17:37;15.33;;;8.00;;
16272;SDS011;8244;50.044;9.006;2022-12-07T06:22:38;13.20;;;7.27;;
16272;SDS011;8244;50.044;9.006;2022-12-07T06:27:40;13.57;;;7.13;;
16272;SDS011;8244;50.044;9.006;2022-12-07T06:32:43;13.20;;;7.90;;
16272;SDS011;8244;50.044;9.006;2022-12-07T06:37:44;13.73;;;7.77;;
16272;SDS011;8244;50.044;9.006;2022-12-07T06:42:46;15.10;;;8.27;;
16272;SDS011;8244;50.044;9.006;2022-12-07T06:47:49;15.80;;;7.77;;
16272;SDS011;8244;50.044;9.006;2022-12-07T06:52:50;13.93;;;7.43;;
16272;SDS011;8244;50.044;9.006;2022-12-07T06:57:52;13.67;;;7.57;;
16272;SDS011;8244;50.044;9.006;2022-12-07T07:02:56;13.97;;;7.47;;
16272;SDS011;8244;50.044;9.006;2022-12-07T07:07:58;12.20;;;7.20;;
16272;SDS011;8244;50.044;9.006;2022-12-07T07:13:00;13.20;;;7.27;;
16272;SDS011;8244;50.044;9.006;2022-12-07T07:18:03;16.90;;;9.17;;
16272;SDS011;8244;50.044;9.006;2022-12-07T07:23:05;16.63;;;9.60;;
16272;SDS011;8244;50.044;9.006;2022-12-07T07:28:07;17.57;;;9.13;;
16272;SDS011;8244;50.044;9.006;2022-12-07T07:33:10;15.50;;;9.63;;
16272;SDS011;8244;50.044;9.006;2022-12-07T07:38:12;15.60;;;8.77;;
16272;SDS011;8244;50.044;9.006;2022-12-07T07:43:13;15.83;;;8.43;;
16272;SDS011;8244;50.044;9.006;2022-12-07T07:48:16;14.83;;;8.67;;
16272;SDS011;8244;50.044;9.006;2022-12-07T07:53:18;13.47;;;8.67;;
16272;SDS011;8244;50.044;9.006;2022-12-07T07:58:19;19.07;;;9.90;;
16272;SDS011;8244;50.044;9.006;2022-12-07T08:03:23;15.27;;;8.87;;
16272;SDS011;8244;50.044;9.006;2022-12-07T08:08:24;13.23;;;8.23;;
16272;SDS011;8244;50.044;9.006;2022-12-07T08:13:26;16.27;;;9.83;;
16272;SDS011;8244;50.044;9.006;2022-12-07T08:18:29;15.20;;;9.07;;
16272;SDS011;8244;50.044;9.006;2022-12-07T08:23:31;14.87;;;8.90;;
16272;SDS011;8244;50.044;9.006;2022-12-07T08:28:33;14.50;;;8.77;;
16272;SDS011;8244;50.044;9.006;2022-12-07T08:33:37;20.43;;;14.40;;
16272;SDS011;8244;50.044;9.006;2022-12-07T08:38:39;15.80;;;9.07;;
16272;SDS011;8244;50.044;9.006;2022-12-07T08:43:42;14.80;;;9.70;;
16272;SDS011;8244;50.044;9.006;2022-12-07T08:48:45;20.67;;;10.87;;
16272;SDS011;8244;50.044;9.006;2022-12-07T08:53:50;17.70;;;11.30;;
16272;SDS011;8244;50.044;9.006;2022-12-07T08:58:54;18.40;;;11.07;;
16272;SDS011;8244;50.044;9.006;2022-12-07T09:03:57;18.13;;;11.57;;
16272;SDS011;8244;50.044;9.006;2022-12-07T09:08:59;18.90;;;11.30;;
16272;SDS011;8244;50.044;9.006;2022-12-07T09:14:02;23.77;;;13.27;;
16272;SDS011;8244;50.044;9.006;2022-12-07T09:19:05;16.37;;;9.90;;
16272;SDS011;8244;50.044;9.006;2022-12-07T09:24:06;19.80;;;14.52;;
16272;SDS011;8244;50.044;9.006;2022-12-07T09:29:09;17.07;;;10.17;;
16272;SDS011;8244;50.044;9.006;2022-12-07T09:34:12;20.65;;;14.40;;
16272;SDS011;8244;50.044;9.006;2022-12-07T09:39:13;20.40;;;13.50;;
16272;SDS011;8244;50.044;9.006;2022-12-07T09:44:17;21.33;;;13.27;;
16272;SDS011;8244;50.044;9.006;2022-12-07T09:49:25;18.07;;;10.73;;
16272;SDS011;8244;50.044;9.006;2022-12-07T09:54:30;18.40;;;11.03;;
16272;SDS011;8244;50.044;9.006;2022-12-07T09:59:32;18.57;;;11.23;;
16272;SDS011;8244;50.044;9.006;2022-12-07T10:04:36;17.57;;;9.90;;
16272;SDS011;8244;50.044;9.006;2022-12-07T10:09:39;16.83;;;9.27;;
16272;SDS011;8244;50.044;9.006;2022-12-07T10:14:53;16.63;;;9.20;;
16272;SDS011;8244;50.044;9.006;2022-12-07T10:20:10;18.13;;;9.43;;
16272;SDS011;8244;50.044;9.006;2022-12-07T10:25:19;13.05;;;8.60;;
16272;SDS011;8244;50.044;9.006;2022-12-07T10:30:22;16.58;;;8.95;;
16272;SDS011;8244;50.044;9.006;2022-12-07T10:35:26;13.50;;;8.27;;
16272;SDS011;8244;50.044;9.006;2022-12-07T10:40:30;13.57;;;8.13;;
16272;SDS011;8244;50.044;9.006;2022-12-07T10:45:34;13.85;;;7.32;;
16272;SDS011;8244;50.044;9.006;2022-12-07T10:50:54;13.57;;;7.47;;
16272;SDS011;8244;50.044;9.006;2022-12-07T11:01:41;14.98;;;9.63;;
16272;SDS011;8244;50.044;9.006;2022-12-07T11:06:50;13.95;;;8.50;;
16272;SDS011;8244;50.044;9.006;2022-12-07T11:11:59;13.40;;;7.88;;
16272;SDS011;8244;50.044;9.006;2022-12-07T11:17:11;14.43;;;8.30;;
16272;SDS011;8244;50.044;9.006;2022-12-07T11:22:20;14.65;;;9.00;;
16272;SDS011;8244;50.044;9.006;2022-12-07T11:27:33;12.27;;;7.00;;
16272;SDS011;8244;50.044;9.006;2022-12-07T11:32:46;11.18;;;6.40;;
16272;SDS011;8244;50.044;9.006;2022-12-07T11:37:57;11.20;;;6.68;;
16272;SDS011;8244;50.044;9.006;2022-12-07T11:43:02;12.77;;;7.32;;
16272;SDS011;8244;50.044;9.006;2022-12-07T11:48:10;11.52;;;6.50;;
16272;SDS011;8244;50.044;9.006;2022-12-07T11:53:20;8.20;;;4.43;;
16272;SDS011;8244;50.044;9.006;2022-12-07T11:58:38;7.72;;;3.60;;
16272;SDS011;8244;50.044;9.006;2022-12-07T12:03:45;4.30;;;2.17;;
16272;SDS011;8244;50.044;9.006;2022-12-07T12:08:51;5.50;;;2.40;;
16272;SDS011;8244;50.044;9.006;2022-12-07T12:14:12;5.60;;;2.30;;
16272;SDS011;8244;50.044;9.006;2022-12-07T12:19:32;7.72;;;2.33;;
16272;SDS011;8244;50.044;9.006;2022-12-07T12:24:38;6.90;;;2.78;;
16272;SDS011;8244;50.044;9.006;2022-12-07T12:29:41;6.15;;;3.10;;
16272;SDS011;8244;50.044;9.006;2022-12-07T12:34:58;13.75;;;6.40;;
16272;SDS011;8244;50.044;9.006;2022-12-07T12:51:36;11.18;;;6.05;;
16272;SDS011;8244;50.044;9.006;2022-12-07T12:56:43;10.82;;;5.85;;
16272;SDS011;8244;50.044;9.006;2022-12-07T13:01:53;10.20;;;6.05;;
16272;SDS011;8244;50.044;9.006;2022-12-07T13:06:57;13.60;;;6.40;;
16272;SDS011;8244;50.044;9.006;2022-12-07T13:12:03;11.65;;;5.88;;
16272;SDS011;8244;50.044;9.006;2022-12-07T13:17:12;12.82;;;6.90;;
16272;SDS011;8244;50.044;9.006;2022-12-07T13:23:05;16.23;;;8.25;;
16272;SDS011;8244;50.044;9.006;2022-12-07T13:28:09;13.05;;;7.32;;
16272;SDS011;8244;50.044;9.006;2022-12-07T13:33:19;15.45;;;7.63;;
16272;SDS011;8244;50.044;9.006;2022-12-07T13:38:24;14.10;;;7.43;;
16272;SDS011;8244;50.044;9.006;2022-12-07T13:43:29;10.55;;;5.75;;
16272;SDS011;8244;50.044;9.006;2022-12-07T13:48:31;12.95;;;6.80;;
16272;SDS011;8244;50.044;9.006;2022-12-07T13:53:36;6.20;;;3.53;;
16272;SDS011;8244;50.044;9.006;2022-12-07T13:58:47;5.93;;;3.10;;
16272;SDS011;8244;50.044;9.006;2022-12-07T14:03:49;6.78;;;3.08;;
16272;SDS011;8244;50.044;9.006;2022-12-07T14:09:06;5.32;;;2.42;;
16272;SDS011;8244;50.044;9.006;2022-12-07T14:14:10;5.78;;;3.00;;
16272;SDS011;8244;50.044;9.006;2022-12-07T14:24:44;7.30;;;3.20;;
16272;SDS011;8244;50.044;9.006;2022-12-07T14:29:46;7.60;;;2.88;;
16272;SDS011;8244;50.044;9.006;2022-12-07T14:34:55;7.32;;;3.40;;
16272;SDS011;8244;50.044;9.006;2022-12-07T14:39:59;7.57;;;3.70;;
16272;SDS011;8244;50.044;9.006;2022-12-07T14:45:05;8.98;;;4.18;;
16272;SDS011;8244;50.044;9.006;2022-12-07T14:50:14;11.95;;;5.75;;
16272;SDS011;8244;50.044;9.006;2022-12-07T14:55:20;9.82;;;5.20;;
16272;SDS011;8244;50.044;9.006;2022-12-07T15:00:24;11.40;;;5.10;;
16272;SDS011;8244;50.044;9.006;2022-12-07T15:05:29;10.30;;;4.32;;
16272;SDS011;8244;50.044;9.006;2022-12-07T15:10:33;11.75;;;5.88;;
16272;SDS011;8244;50.044;9.006;2022-12-07T15:15:38;13.15;;;6.55;;
16272;SDS011;8244;50.044;9.006;2022-12-07T15:20:40;11.83;;;6.17;;
16272;SDS011;8244;50.044;9.006;2022-12-07T15:25:43;8.43;;;5.20;;
16272;SDS011;8244;50.044;9.006;2022-12-07T15:30:46;10.35;;;4.60;;
16272;SDS011;8244;50.044;9.006;2022-12-07T15:35:48;17.23;;;8.52;;
16272;SDS011;8244;50.044;9.006;2022-12-07T15:40:50;14.07;;;7.97;;
16272;SDS011;8244;50.044;9.006;2022-12-07T15:45:52;8.27;;;3.92;;
16272;SDS011;8244;50.044;9.006;2022-12-07T15:51:00;7.87;;;3.53;;
16272;SDS011;8244;50.044;9.006;2022-12-07T15:56:06;10.27;;;3.90;;
16272;SDS011;8244;50.044;9.006;2022-12-07T16:01:09;8.17;;;2.87;;
16272;SDS011;8244;50.044;9.006;2022-12-07T16:06:12;13.03;;;5.93;;
16272;SDS011;8244;50.044;9.006;2022-12-07T16:11:17;11.60;;;4.80;;
16272;SDS011;8244;50.044;9.006;2022-12-07T16:16:19;11.27;;;5.80;;
16272;SDS011;8244;50.044;9.006;2022-12-07T16:21:21;9.53;;;5.27;;
16272;SDS011;8244;50.044;9.006;2022-12-07T16:26:24;14.27;;;6.73;;
16272;SDS011;8244;50.044;9.006;2022-12-07T16:31:27;16.27;;;8.47;;
16272;SDS011;8244;50.044;9.006;2022-12-07T16:36:29;18.73;;;10.10;;
16272;SDS011;8244;50.044;9.006;2022-12-07T16:41:32;14.90;;;6.57;;
16272;SDS011;8244;50.044;9.006;2022-12-07T16:46:34;13.70;;;6.27;;
16272;SDS011;8244;50.044;9.006;2022-12-07T16:51:37;21.50;;;14.07;;
16272;SDS011;8244;50.044;9.006;2022-12-07T16:56:40;9.47;;;5.20;;
16272;SDS011;8244;50.044;9.006;2022-12-07T17:01:42;11.33;;;4.43;;
16272;SDS011;8244;50.044;9.006;2022-12-07T17:06:43;12.87;;;5.33;;
16272;SDS011;8244;50.044;9.006;2022-12-07T17:11:46;14.50;;;7.10;;
16272;SDS011;8244;50.044;9.006;2022-12-07T17:16:48;17.40;;;7.87;;
16272;SDS011;8244;50.044;9.006;2022-12-07T17:21:50;18.13;;;9.90;;
16272;SDS011;8244;50.044;9.006;2022-12-07T17:26:53;13.40;;;6.17;;
16272;SDS011;8244;50.044;9.006;2022-12-07T17:31:55;13.10;;;5.70;;
16272;SDS011;8244;50.044;9.006;2022-12-07T17:36:57;11.07;;;4.93;;
16272;SDS011;8244;50.044;9.006;2022-12-07T17:42:00;13.30;;;7.23;;
16272;SDS011;8244;50.044;9.006;2022-12-07T17:47:19;15.50;;;6.17;;
16272;SDS011;8244;50.044;9.006;2022-12-07T17:52:21;20.37;;;7.07;;
16272;SDS011;8244;50.044;9.006;2022-12-07T17:57:42;13.53;;;5.80;;
16272;SDS011;8244;50.044;9.006;2022-12-07T18:02:44;13.87;;;5.60;;
16272;SDS011;8244;50.044;9.006;2022-12-07T18:07:45;12.60;;;6.23;;
16272;SDS011;8244;50.044;9.006;2022-12-07T18:12:48;15.77;;;5.63;;
16272;SDS011;8244;50.044;9.006;2022-12-07T18:18:10;13.03;;;6.10;;
16272;SDS011;8244;50.044;9.006;2022-12-07T18:23:12;15.90;;;6.13;;
16272;SDS011;8244;50.044;9.006;2022-12-07T18:28:15;10.17;;;5.47;;
16272;SDS011;8244;50.044;9.006;2022-12-07T18:33:17;11.93;;;5.93;;
16272;SDS011;8244;50.044;9.006;2022-12-07T18:38:18;22.70;;;10.63;;
16272;SDS011;8244;50.044;9.006;2022-12-07T18:43:21;20.37;;;9.87;;
16272;SDS011;8244;50.044;9.006;2022-12-07T18:48:24;15.97;;;8.63;;
16272;SDS011;8244;50.044;9.006;2022-12-07T18:53:25;14.47;;;6.47;;
16272;SDS011;8244;50.044;9.006;2022-12-07T18:58:28;15.27;;;7.20;;
16272;SDS011;8244;50.044;9.006;2022-12-07T19:03:30;21.33;;;10.17;;
16272;SDS011;8244;50.044;9.006;2022-12-07T19:08:32;29.57;;;15.40;;
16272;SDS011;8244;50.044;9.006;2022-12-07T19:13:36;14.57;;;7.27;;
16272;SDS011;8244;50.044;9.006;2022-12-07T19:18:38;17.13;;;9.63;;
16272;SDS011;8244;50.044;9.006;2022-12-07T19:23:40;20.33;;;9.90;;
16272;SDS011;8244;50.044;9.006;2022-12-07T19:28:43;20.83;;;9.97;;
16272;SDS011;8244;50.044;9.006;2022-12-07T19:33:44;16.67;;;8.07;;
16272;SDS011;8244;50.044;9.006;2022-12-07T19:38:46;14.43;;;8.43;;
16272;SDS011;8244;50.044;9.006;2022-12-07T19:43:50;14.70;;;8.20;;
16272;SDS011;8244;50.044;9.006;2022-12-07T19:48:52;20.10;;;9.70;;
16272;SDS011;8244;50.044;9.006;2022-12-07T19:53:54;14.57;;;8.27;;
16272;SDS011;8244;50.044;9.006;2022-12-07T19:58:59;16.53;;;9.47;;
16272;SDS011;8244;50.044;9.006;2022-12-07T20:04:03;16.73;;;9.17;;
16272;SDS011;8244;50.044;9.006;2022-12-07T20:09:05;14.43;;;8.57;;
16272;SDS011;8244;50.044;9.006;2022-12-07T20:14:08;15.13;;;8.87;;
16272;SDS011;8244;50.044;9.006;2022-12-07T20:19:12;21.03;;;11.70;;
16272;SDS011;8244;50.044;9.006;2022-12-07T20:24:16;21.13;;;10.93;;
16272;SDS011;8244;50.044;9.006;2022-12-07T20:29:22;19.83;;;10.77;;
16272;SDS011;8244;50.044;9.006;2022-12-07T20:34:24;19.83;;;10.90;;
16272;SDS011;8244;50.044;9.006;2022-12-07T20:39:26;20.10;;;10.87;;
16272;SDS011;8244;50.044;9.006;2022-12-07T20:44:29;21.63;;;10.10;;
16272;SDS011;8244;50.044;9.006;2022-12-07T20:49:32;22.47;;;11.10;;
16272;SDS011;8244;50.044;9.006;2022-12-07T20:54:34;20.30;;;10.97;;
16272;SDS011;8244;50.044;9.006;2022-12-07T20:59:37;20.63;;;10.20;;
16272;SDS011;8244;50.044;9.006;2022-12-07T21:04:39;20.37;;;11.37;;
16272;SDS011;8244;50.044;9.006;2022-12-07T21:09:41;18.87;;;10.30;;
16272;SDS011;8244;50.044;9.006;2022-12-07T21:14:44;24.63;;;13.53;;
16272;SDS011;8244;50.044;9.006;2022-12-07T21:19:45;19.53;;;10.60;;
16272;SDS011;8244;50.044;9.006;2022-12-07T21:24:47;16.30;;;9.30;;
16272;SDS011;8244;50.044;9.006;2022-12-07T21:29:50;14.67;;;8.27;;
16272;SDS011;8244;50.044;9.006;2022-12-07T21:34:52;15.00;;;8.17;;
16272;SDS011;8244;50.044;9.006;2022-12-07T21:39:53;15.87;;;8.70;;
16272;SDS011;8244;50.044;9.006;2022-12-07T21:44:57;17.43;;;8.97;;
16272;SDS011;8244;50.044;9.006;2022-12-07T21:49:58;17.37;;;9.43;;
16272;SDS011;8244;50.044;9.006;2022-12-07T21:55:00;21.93;;;9.73;;
16272;SDS011;8244;50.044;9.006;2022-12-07T22:00:03;20.67;;;9.73;;
16272;SDS011;8244;50.044;9.006;2022-12-07T22:05:06;17.33;;;9.03;;
16272;SDS011;8244;50.044;9.006;2022-12-07T22:10:09;20.37;;;10.10;;
16272;SDS011;8244;50.044;9.006;2022-12-07T22:15:12;14.83;;;9.23;;
16272;SDS011;8244;50.044;9.006;2022-12-07T22:20:14;18.00;;;9.80;;
16272;SDS011;8244;50.044;9.006;2022-12-07T22:25:16;19.73;;;10.57;;
16272;SDS011;8244;50.044;9.006;2022-12-07T22:30:19;18.97;;;11.00;;
16272;SDS011;8244;50.044;9.006;2022-12-07T22:35:20;18.33;;;10.63;;
16272;SDS011;8244;50.044;9.006;2022-12-07T22:40:22;16.60;;;10.13;;
16272;SDS011;8244;50.044;9.006;2022-12-07T22:45:25;19.53;;;9.80;;
16272;SDS011;8244;50.044;9.006;2022-12-07T22:50:27;20.10;;;10.40;;
16272;SDS011;8244;50.044;9.006;2022-12-07T22:55:28;17.47;;;10.47;;
16272;SDS011;8244;50.044;9.006;2022-12-07T23:00:31;18.50;;;10.40;;
16272;SDS011;8244;50.044;9.006;2022-12-07T23:05:33;20.73;;;11.17;;
16272;SDS011;8244;50.044;9.006;2022-12-07T23:10:40;19.07;;;10.77;;
16272;SDS011;8244;50.044;9.006;2022-12-07T23:15:44;19.93;;;11.37;;
16272;SDS011;8244;50.044;9.006;2022-12-07T23:20:46;17.37;;;10.10;;
16272;SDS011;8244;50.044;9.006;2022-12-07T23:25:47;17.13;;;10.20;;
16272;SDS011;8244;50.044;9.006;2022-12-07T23:30:50;21.30;;;10.70;;
16272;SDS011;8244;50.044;9.006;2022-12-07T23:35:52;18.43;;;11.10;;
16272;SDS011;8244;50.044;9.006;2022-12-07T23:40:53;21.30;;;11.27;;
16272;SDS011;8244;50.044;9.006;2022-12-07T23:45:56;18.33;;;10.80;;
16272;SDS011;8244;50.044;9.006;2022-12-07T23:50:58;19.33;;;11.30;;
16272;SDS011;8244;50.044;9.006;2022-12-07T23:56:00;18.77;;;11.10;;
